createdAt,value
2019-04-06T00:00:22.745Z,82.1
2019-04-06T00:01:37.125Z,80.4
2019-04-06T00:02:51.159Z,78.9
2019-04-06T00:04:05.358Z,80.4
2019-04-06T00:05:19.487Z,77.8
2019-04-06T00:06:33.824Z,77.2
2019-04-06T00:07:47.858Z,81.7
2019-04-06T00:09:02.041Z,75.7
2019-04-06T00:10:16.226Z,74.8
2019-04-06T00:11:30.430Z,79.4
2019-04-06T00:12:44.587Z,79.9
2019-04-06T00:13:58.820Z,77.9
2019-04-06T00:15:12.956Z,77.7
2019-04-06T00:16:27.136Z,79.7
2019-04-06T00:17:41.348Z,75.5
2019-04-06T00:18:55.487Z,78.7
2019-04-06T00:20:09.785Z,81.3
2019-04-06T00:21:23.858Z,80
2019-04-06T00:22:38.048Z,79.8
2019-04-06T00:23:52.496Z,76
2019-04-06T00:25:06.429Z,75.1
2019-04-06T00:26:20.596Z,76.6
2019-04-06T00:27:34.790Z,80
2019-04-06T00:28:48.960Z,78.5
2019-04-06T00:30:03.177Z,79.3
2019-04-06T00:31:17.326Z,74.8
2019-04-06T00:32:31.531Z,77.2
2019-04-06T00:33:45.749Z,79.6
2019-04-06T00:34:59.938Z,76.8
2019-04-06T00:36:14.118Z,80
2019-04-06T00:37:28.300Z,79.4
2019-04-06T00:38:42.459Z,80.9
2019-04-06T00:39:56.702Z,76.3
2019-04-06T00:41:13.388Z,78
2019-04-06T00:42:25.107Z,76.4
2019-04-06T00:43:39.205Z,82.9
2019-04-06T00:44:53.416Z,81.5
2019-04-06T00:46:07.569Z,88.7
2019-04-06T00:47:21.837Z,85.1
2019-04-06T00:48:36.046Z,79.8
2019-04-06T00:49:50.212Z,84
2019-04-06T00:51:04.323Z,79.2
2019-04-06T00:52:18.734Z,83.9
2019-04-06T00:53:33.995Z,87.4
2019-04-06T00:54:46.904Z,79.1
2019-04-06T00:56:01.088Z,82.5
2019-04-06T00:57:15.361Z,82.4
2019-04-06T00:58:29.467Z,82.8
2019-04-06T00:59:43.702Z,83.8
2019-04-06T01:00:57.838Z,81
2019-04-06T01:02:15.462Z,85.1
2019-04-06T01:03:26.549Z,87.1
2019-04-06T01:04:40.413Z,78.6
2019-04-06T01:05:54.690Z,78.7
2019-04-06T01:07:08.793Z,83.5
2019-04-06T01:08:22.994Z,79.3
2019-04-06T01:09:37.183Z,83.1
2019-04-06T01:10:51.396Z,79.7
2019-04-06T01:12:05.696Z,83.7
2019-04-06T01:13:19.757Z,80.2
2019-04-06T01:14:33.940Z,82.6
2019-04-06T01:15:48.136Z,82
2019-04-06T01:17:02.340Z,77.5
2019-04-06T01:18:16.607Z,86.6
2019-04-06T01:19:31.166Z,79.6
2019-04-06T01:20:45.015Z,79.2
2019-04-06T01:21:59.082Z,82.1
2019-04-06T01:23:13.273Z,81.3
2019-04-06T01:24:27.499Z,86.1
2019-04-06T01:25:42.396Z,86.6
2019-04-06T01:26:55.864Z,80.6
2019-04-06T01:28:10.339Z,85.5
2019-04-06T01:29:24.238Z,78.8
2019-04-06T01:30:38.486Z,86.8
2019-04-06T01:31:52.630Z,86.8
2019-04-06T01:33:06.816Z,84.7
2019-04-06T01:34:21.004Z,87.8
2019-04-06T01:35:35.374Z,83.9
2019-04-06T01:36:49.454Z,83.1
2019-04-06T01:38:03.695Z,88.1
2019-04-06T01:39:17.791Z,92
2019-04-06T01:40:31.957Z,90.4
2019-04-06T01:41:46.162Z,90.3
2019-04-06T01:43:00.361Z,87.3
2019-04-06T01:44:18.118Z,88.3
2019-04-06T01:45:33.775Z,88.4
2019-04-06T01:46:42.926Z,87.8
2019-04-06T01:47:57.200Z,86.7
2019-04-06T01:49:11.323Z,93.1
2019-04-06T01:50:25.538Z,83.8
2019-04-06T01:51:39.720Z,89.2
2019-04-06T01:52:53.917Z,92
2019-04-06T01:54:08.088Z,88.1
2019-04-06T01:55:22.277Z,89.9
2019-04-06T01:56:36.673Z,84.5
2019-04-06T01:57:50.668Z,88.2
2019-04-06T01:59:04.842Z,87.9
2019-04-06T02:00:19.020Z,88.9
2019-04-06T02:01:33.216Z,87.1
2019-04-06T02:02:47.423Z,97
2019-04-06T02:04:01.662Z,85.6
2019-04-06T02:05:18.067Z,90.1
2019-04-06T02:06:33.504Z,90
2019-04-06T02:07:44.179Z,89.4
2019-04-06T02:08:58.395Z,86.2
2019-04-06T02:10:12.643Z,84.8
2019-04-06T02:11:26.800Z,87.1
2019-04-06T02:12:40.950Z,89.3
2019-04-06T02:13:55.174Z,88.4
2019-04-06T02:15:09.489Z,85.5
2019-04-06T02:16:23.523Z,88.4
2019-04-06T02:17:37.770Z,89.6
2019-04-06T02:18:51.890Z,87.3
2019-04-06T02:20:06.124Z,88.5
2019-04-06T02:21:20.332Z,90.2
2019-04-06T02:22:34.446Z,88.7
2019-04-06T02:23:48.671Z,91.6
2019-04-06T02:25:02.949Z,89.1
2019-04-06T02:26:18.172Z,85.4
2019-04-06T02:27:33.508Z,89.1
2019-04-06T02:28:45.473Z,92.7
2019-04-06T02:29:59.657Z,92.4
2019-04-06T02:31:13.873Z,87.1
2019-04-06T02:32:28.021Z,90
2019-04-06T02:33:42.264Z,91.8
2019-04-06T02:34:56.479Z,91.7
2019-04-06T02:36:10.567Z,96.3
2019-04-06T02:37:24.797Z,95.6
2019-04-06T02:38:39.043Z,92.5
2019-04-06T02:39:53.148Z,90.4
2019-04-06T02:41:07.340Z,93
2019-04-06T02:42:21.680Z,82.7
2019-04-06T02:43:35.689Z,96.2
2019-04-06T02:44:49.870Z,87
2019-04-06T02:46:04.146Z,93.1
2019-04-06T02:47:18.298Z,95.9
2019-04-06T02:48:32.437Z,92.3
2019-04-06T02:49:46.642Z,94.8
2019-04-06T02:51:00.956Z,94.7
2019-04-06T02:52:14.992Z,92.6
2019-04-06T02:53:29.167Z,99.2
2019-04-06T02:54:43.483Z,100.2
2019-04-06T02:55:57.709Z,100.1
2019-04-06T02:57:11.753Z,98.1
2019-04-06T02:58:25.928Z,99.4
2019-04-06T02:59:40.222Z,103.2
2019-04-06T03:00:54.388Z,98.1
2019-04-06T03:02:08.491Z,94.9
2019-04-06T03:03:22.725Z,98.8
2019-04-06T03:04:37.053Z,96.9
2019-04-06T03:05:51.075Z,101.3
2019-04-06T03:07:05.306Z,99.3
2019-04-06T03:08:19.448Z,103
2019-04-06T03:09:33.705Z,100.8
2019-04-06T03:10:47.872Z,102.7
2019-04-06T03:12:02.045Z,100.1
2019-04-06T03:13:16.255Z,101.8
2019-04-06T03:14:30.367Z,100.8
2019-04-06T03:15:44.542Z,99.5
2019-04-06T03:16:58.738Z,100.6
2019-04-06T03:18:12.919Z,101.8
2019-04-06T03:19:27.125Z,100.5
2019-04-06T03:20:41.303Z,103.2
2019-04-06T03:21:55.581Z,97.6
2019-04-06T03:23:09.681Z,99.1
2019-04-06T03:24:23.878Z,103.1
2019-04-06T03:25:38.086Z,97.4
2019-04-06T03:26:52.356Z,98.5
2019-04-06T03:28:07.023Z,101.3
2019-04-06T03:29:20.685Z,100.1
2019-04-06T03:30:34.809Z,108.8
2019-04-06T03:31:49.106Z,107.2
2019-04-06T03:33:03.197Z,107.4
2019-04-06T03:34:17.412Z,103.3
2019-04-06T03:35:32.786Z,108.7
2019-04-06T03:36:45.735Z,108.1
2019-04-06T03:37:59.926Z,105.8
2019-04-06T03:39:14.118Z,98
2019-04-06T03:40:28.283Z,106.4
2019-04-06T03:41:42.502Z,106.7
2019-04-06T03:42:56.712Z,111.8
2019-04-06T03:44:10.873Z,112.4
2019-04-06T03:45:25.006Z,109.4
2019-04-06T03:46:39.249Z,108.6
2019-04-06T03:47:53.392Z,106.6
2019-04-06T03:49:07.672Z,110.1
2019-04-06T03:50:21.822Z,110.5
2019-04-06T03:51:35.925Z,111.5
2019-04-06T03:52:50.184Z,106.4
2019-04-06T03:54:04.285Z,114.1
2019-04-06T03:55:18.601Z,115.2
2019-04-06T03:56:32.640Z,108
2019-04-06T03:57:46.923Z,105.9
2019-04-06T03:59:01.194Z,110.4
2019-04-06T04:00:15.224Z,113.2
2019-04-06T04:01:29.438Z,107.1
2019-04-06T04:02:43.596Z,112.8
2019-04-06T04:03:57.807Z,114.3
2019-04-06T04:05:12.040Z,108
2019-04-06T04:06:26.191Z,106.2
2019-04-06T04:07:40.393Z,111.9
2019-04-06T04:08:54.676Z,112.5
2019-04-06T04:10:08.773Z,111.8
2019-04-06T04:11:23.184Z,113.3
2019-04-06T04:12:39.872Z,113.7
2019-04-06T04:13:52.612Z,109.9
2019-04-06T04:15:05.544Z,112.4
2019-04-06T04:16:19.722Z,109.5
2019-04-06T04:17:33.949Z,111.7
2019-04-06T04:18:48.088Z,115.9
2019-04-06T04:20:02.280Z,111.5
2019-04-06T04:21:16.550Z,107.8
2019-04-06T04:22:30.651Z,113.9
2019-04-06T04:23:44.829Z,106.9
2019-04-06T04:24:59.112Z,114.5
2019-04-06T04:26:13.203Z,113.5
2019-04-06T04:27:27.420Z,107.9
2019-04-06T04:28:41.704Z,110.3
2019-04-06T04:29:55.826Z,110.1
2019-04-06T04:31:09.951Z,112.6
2019-04-06T04:32:24.201Z,114.8
2019-04-06T04:33:38.446Z,110.1
2019-04-06T04:34:52.512Z,113.6
2019-04-06T04:36:06.765Z,122
2019-04-06T04:37:20.891Z,115.6
2019-04-06T04:38:35.071Z,112.5
2019-04-06T04:39:49.369Z,108.2
2019-04-06T04:41:03.580Z,116.5
2019-04-06T04:42:17.741Z,116.7
2019-04-06T04:43:31.969Z,119.6
2019-04-06T04:44:46.020Z,109.8
2019-04-06T04:46:00.220Z,116.4
2019-04-06T04:47:14.419Z,114.8
2019-04-06T04:48:28.604Z,113.9
2019-04-06T04:49:42.825Z,118.6
2019-04-06T04:50:56.988Z,118.5
2019-04-06T04:52:11.186Z,122.1
2019-04-06T04:53:25.861Z,109.6
2019-04-06T04:54:39.567Z,115.3
2019-04-06T04:55:53.837Z,122.6
2019-04-06T04:57:07.949Z,116.9
2019-04-06T04:58:22.122Z,118.4
2019-04-06T04:59:36.724Z,120.3
2019-04-06T05:00:50.681Z,120.2
2019-04-06T05:02:04.678Z,117.7
2019-04-06T05:03:18.980Z,120.3
2019-04-06T05:04:33.040Z,116.9
2019-04-06T05:07:01.628Z,120.5
2019-04-06T05:08:15.618Z,124.8
2019-04-06T05:09:29.799Z,125.5
2019-04-06T05:10:43.973Z,122.9
2019-04-06T05:11:59.229Z,121
2019-04-06T05:13:12.478Z,122.2
2019-04-06T05:14:26.842Z,119
2019-04-06T05:15:40.744Z,121.6
2019-04-06T05:16:54.889Z,118.9
2019-04-06T05:18:09.076Z,119.8
2019-04-06T05:19:23.259Z,120.2
2019-04-06T05:20:41.950Z,125.2
2019-04-06T05:21:51.799Z,120.6
2019-04-06T05:23:05.789Z,122
2019-04-06T05:24:20.067Z,125.2
2019-04-06T05:25:34.150Z,126.2
2019-04-06T05:26:48.372Z,121.3
2019-04-06T05:28:02.695Z,118.2
2019-04-06T05:29:16.723Z,121
2019-04-06T05:30:31.017Z,120.4
2019-04-06T05:31:45.096Z,125.1
2019-04-06T05:32:59.269Z,122.4
2019-04-06T05:34:13.468Z,119.1
2019-04-06T05:35:27.766Z,122.2
2019-04-06T05:37:56.026Z,117.5
2019-04-06T05:39:10.297Z,113.3
2019-04-06T05:40:24.409Z,116.3
2019-04-06T05:41:38.593Z,118.9
2019-04-06T05:42:52.825Z,118.5
2019-04-06T05:44:06.948Z,116.8
2019-04-06T05:45:21.231Z,117.7
2019-04-06T05:46:35.355Z,119.2
2019-04-06T05:47:49.489Z,121.9
2019-04-06T05:49:03.732Z,118.2
2019-04-06T05:50:17.856Z,116.1
2019-04-06T05:51:32.065Z,116.2
2019-04-06T05:52:46.202Z,118.8
2019-04-06T05:54:00.375Z,117.5
2019-04-06T05:55:14.547Z,112.7
2019-04-06T05:56:28.730Z,114
2019-04-06T05:57:42.962Z,113.8
2019-04-06T05:58:57.076Z,114.4
2019-04-06T06:00:11.293Z,120.2
2019-04-06T06:01:25.424Z,118.5
2019-04-06T06:02:42.069Z,106.9
2019-04-06T06:03:53.775Z,113.6
2019-04-06T06:05:07.984Z,118.8
2019-04-06T06:06:22.146Z,113.9
2019-04-06T06:07:36.330Z,112.6
2019-04-06T06:08:50.735Z,111.9
2019-04-06T06:10:04.703Z,109.6
2019-04-06T06:11:18.897Z,114
2019-04-06T06:12:33.041Z,109.5
2019-04-06T06:13:47.246Z,108.5
2019-04-06T06:15:01.425Z,104
2019-04-06T06:16:19.661Z,106.3
2019-04-06T06:17:29.786Z,108.7
2019-04-06T06:18:43.977Z,106.3
2019-04-06T06:19:58.183Z,105.5
2019-04-06T06:21:12.342Z,104.8
2019-04-06T06:22:26.492Z,102.2
2019-04-06T06:23:40.693Z,109.2
2019-04-06T06:24:54.895Z,109.8
2019-04-06T06:26:09.063Z,105.1
2019-04-06T06:27:23.226Z,106.3
2019-04-06T06:28:37.392Z,106.4
2019-04-06T06:29:51.590Z,104.7
2019-04-06T06:31:05.778Z,105.8
2019-04-06T06:32:20.007Z,108.9
2019-04-06T06:33:34.108Z,108.9
2019-04-06T06:34:48.316Z,106.9
2019-04-06T06:36:02.511Z,105.9
2019-04-06T06:37:16.729Z,105.5
2019-04-06T06:38:30.847Z,118.1
2019-04-06T06:39:45.052Z,105.1
2019-04-06T06:40:59.237Z,100.4
2019-04-06T06:42:13.397Z,107.8
2019-04-06T06:43:27.581Z,104.9
2019-04-06T06:44:41.754Z,113.7
2019-04-06T06:45:55.928Z,110.6
2019-04-06T06:47:10.183Z,103.1
2019-04-06T06:48:24.295Z,105.2
2019-04-06T06:49:38.570Z,105.2
2019-04-06T06:50:52.850Z,108.8
2019-04-06T06:52:06.812Z,104.6
2019-04-06T06:53:21.167Z,107.7
2019-04-06T06:54:35.222Z,103.3
2019-04-06T06:55:49.384Z,106.2
2019-04-06T06:57:03.523Z,106.9
2019-04-06T06:58:17.744Z,108.4
2019-04-06T06:59:31.855Z,107
2019-04-06T07:00:46.127Z,104.5
2019-04-06T07:02:00.210Z,105.4
2019-04-06T07:03:14.348Z,110.6
2019-04-06T07:04:28.536Z,108.8
2019-04-06T07:05:42.692Z,103.3
2019-04-06T07:06:57.203Z,106.1
2019-04-06T07:08:11.096Z,106.1
2019-04-06T07:09:25.207Z,105.9
2019-04-06T07:10:39.654Z,102.4
2019-04-06T07:11:53.866Z,103.5
2019-04-06T07:13:07.691Z,108.8
2019-04-06T07:14:21.866Z,105
2019-04-06T07:15:36.050Z,103.4
2019-04-06T07:16:50.648Z,102.1
2019-04-06T07:18:04.380Z,103.1
2019-04-06T07:19:18.526Z,102.1
2019-04-06T07:20:32.663Z,98.8
2019-04-06T07:21:46.833Z,98
2019-04-06T07:23:00.999Z,101.9
2019-04-06T07:24:15.152Z,99.6
2019-04-06T07:25:29.763Z,95.3
2019-04-06T07:26:43.474Z,99.9
2019-04-06T07:27:57.630Z,100.4
2019-04-06T07:29:11.817Z,100
2019-04-06T07:30:25.943Z,103.2
2019-04-06T07:31:40.287Z,102.2
2019-04-06T07:32:54.320Z,98
2019-04-06T07:34:08.581Z,97.4
2019-04-06T07:35:22.591Z,99.2
2019-04-06T07:36:36.986Z,98.2
2019-04-06T07:37:50.982Z,99.1
2019-04-06T07:39:05.073Z,100.5
2019-04-06T07:40:19.256Z,98.7
2019-04-06T07:41:33.428Z,102.9
2019-04-06T07:42:47.669Z,105.5
2019-04-06T07:44:01.735Z,104.5
2019-04-06T07:47:00.327Z,104.1
2019-04-06T07:47:44.229Z,99.9
2019-04-06T07:48:58.377Z,94.9
2019-04-06T07:50:12.680Z,102.8
2019-04-06T07:51:26.686Z,98.3
2019-04-06T07:52:40.929Z,100
2019-04-06T07:53:54.980Z,94.6
2019-04-06T07:55:09.265Z,97.4
2019-04-06T07:56:23.335Z,101.5
2019-04-06T07:57:37.502Z,98.9
2019-04-06T07:58:51.810Z,98.6
2019-04-06T08:00:05.808Z,99.1
2019-04-06T08:01:20.003Z,94.3
2019-04-06T08:02:34.088Z,93
2019-04-06T08:03:48.253Z,95.2
2019-04-06T08:05:03.836Z,96
2019-04-06T08:06:16.584Z,94
2019-04-06T08:07:30.734Z,92.7
2019-04-06T08:08:44.982Z,90.8
2019-04-06T08:09:59.067Z,98
2019-04-06T08:11:13.206Z,92.3
2019-04-06T08:12:27.460Z,94.8
2019-04-06T08:13:41.545Z,96.6
2019-04-06T08:14:55.729Z,90.7
2019-04-06T08:16:09.871Z,93.5
2019-04-06T08:17:24.024Z,88.8
2019-04-06T08:18:38.229Z,94.6
2019-04-06T08:19:52.442Z,85.2
2019-04-06T08:21:06.563Z,90.4
2019-04-06T08:22:20.607Z,89.8
2019-04-06T08:23:34.731Z,90
2019-04-06T08:24:48.869Z,84.4
2019-04-06T08:26:03.044Z,89.6
2019-04-06T08:27:17.162Z,85.7
2019-04-06T08:28:31.336Z,82.4
2019-04-06T08:29:45.464Z,89.5
2019-04-06T08:30:59.663Z,86.3
2019-04-06T08:32:13.787Z,84.5
2019-04-06T08:33:27.854Z,85.8
2019-04-06T08:34:41.995Z,83.6
2019-04-06T08:35:56.127Z,82.4
2019-04-06T08:37:10.269Z,81.3
2019-04-06T08:38:24.406Z,77.9
2019-04-06T08:39:38.583Z,82.7
2019-04-06T08:40:52.676Z,82.4
2019-04-06T08:42:06.798Z,82
2019-04-06T08:43:20.949Z,80.3
2019-04-06T08:44:35.087Z,77.6
2019-04-06T08:45:49.384Z,79.5
2019-04-06T08:47:03.373Z,84.6
2019-04-06T08:48:17.554Z,76.5
2019-04-06T08:49:31.650Z,78.6
2019-04-06T08:50:45.733Z,78.4
2019-04-06T08:51:59.832Z,78.9
2019-04-06T08:53:13.948Z,78
2019-04-06T08:54:28.077Z,72.4
2019-04-06T08:55:42.192Z,75.6
2019-04-06T08:56:59.362Z,74.9
2019-04-06T08:58:12.687Z,72.1
2019-04-06T08:59:24.640Z,72.3
2019-04-06T09:00:38.697Z,73.2
2019-04-06T09:01:52.973Z,73.6
2019-04-06T09:03:06.959Z,70.4
2019-04-06T09:04:21.042Z,71.2
2019-04-06T09:05:35.239Z,68
2019-04-06T09:06:49.340Z,70.4
2019-04-06T09:08:03.409Z,67.6
2019-04-06T09:09:17.644Z,72
2019-04-06T09:10:31.621Z,68.2
2019-04-06T09:11:45.716Z,68.9
2019-04-06T09:12:59.838Z,66.9
2019-04-06T09:14:13.999Z,68.2
2019-04-06T09:15:28.023Z,66
2019-04-06T09:16:42.126Z,66.4
2019-04-06T09:17:56.263Z,64.3
2019-04-06T09:19:10.333Z,66.7
2019-04-06T09:20:24.456Z,66.4
2019-04-06T09:21:38.585Z,67.5
2019-04-06T09:24:06.779Z,63.7
2019-04-06T09:25:20.848Z,63.6
2019-04-06T09:26:34.932Z,64.5
2019-04-06T09:27:49.037Z,64.8
2019-04-06T09:29:03.205Z,64.4
2019-04-06T09:30:17.305Z,62.7
2019-04-06T09:31:31.410Z,60.9
2019-04-06T09:32:45.395Z,61
2019-04-06T09:33:59.565Z,63.7
2019-04-06T09:35:13.729Z,60.3
2019-04-06T09:36:27.661Z,61.1
2019-04-06T09:37:41.730Z,62.5
2019-04-06T09:38:55.784Z,62.6
2019-04-06T09:40:09.893Z,60.7
2019-04-06T09:41:23.982Z,60.5
2019-04-06T09:42:38.051Z,59.9
2019-04-06T09:43:52.163Z,59.6
2019-04-06T09:45:06.287Z,61.9
2019-04-06T09:46:20.408Z,63.8
2019-04-06T09:47:34.456Z,67
2019-04-06T09:48:48.564Z,62.9
2019-04-06T09:50:02.679Z,62.8
2019-04-06T09:51:16.813Z,62.9
2019-04-06T09:52:30.967Z,62.5
2019-04-06T09:53:44.985Z,59.6
2019-04-06T09:54:59.088Z,61.5
2019-04-06T09:56:13.183Z,60
2019-04-06T09:57:27.283Z,63.3
2019-04-06T09:58:41.417Z,58.7
2019-04-06T09:59:55.472Z,61.3
2019-04-06T10:01:09.575Z,63.4
2019-04-06T10:02:23.646Z,59.2
2019-04-06T10:03:37.736Z,59.5
2019-04-06T10:04:51.913Z,57.8
2019-04-06T10:06:05.929Z,60.2
2019-04-06T10:07:21.990Z,58
2019-04-06T10:08:34.820Z,61.5
2019-04-06T10:09:48.223Z,61.5
2019-04-06T10:11:02.611Z,66.1
2019-04-06T10:12:16.624Z,60.9
2019-04-06T10:13:30.618Z,59.7
2019-04-06T10:14:44.646Z,61
2019-04-06T10:15:59.059Z,58.9
2019-04-06T10:17:12.869Z,62.7
2019-04-06T10:18:26.864Z,57
2019-04-06T10:19:40.974Z,62.9
2019-04-06T10:20:55.114Z,59.6
2019-04-06T10:22:09.173Z,53.8
2019-04-06T10:23:23.226Z,61.5
2019-04-06T10:24:37.290Z,57.5
2019-04-06T10:25:51.558Z,57.5
2019-04-06T10:27:05.472Z,55.7
2019-04-06T10:28:19.552Z,55.3
2019-04-06T10:29:33.626Z,54.3
2019-04-06T10:30:47.722Z,56.7
2019-04-06T10:32:01.797Z,55
2019-04-06T10:33:15.898Z,56
2019-04-06T10:34:30.065Z,59.8
2019-04-06T10:35:44.151Z,57
2019-04-06T10:36:58.208Z,57.7
2019-04-06T10:38:12.189Z,55.7
2019-04-06T10:39:26.274Z,53.2
2019-04-06T10:40:40.452Z,52.9
2019-04-06T10:41:54.533Z,55
2019-04-06T10:43:08.484Z,53.3
2019-04-06T10:44:22.545Z,52.1
2019-04-06T10:45:36.631Z,52.3
2019-04-06T10:46:50.728Z,53.5
2019-04-06T10:48:04.811Z,56.4
2019-04-06T10:49:18.801Z,57
2019-04-06T10:50:32.881Z,55.3
2019-04-06T10:51:48.641Z,54.9
2019-04-06T10:53:01.110Z,53.8
2019-04-06T10:54:15.055Z,56.1
2019-04-06T10:55:29.189Z,54
2019-04-06T10:56:43.184Z,55.8
2019-04-06T10:57:57.308Z,55.3
2019-04-06T10:59:11.390Z,55.1
2019-04-06T11:00:25.422Z,55.9
2019-04-06T11:01:39.579Z,55.8
2019-04-06T11:02:53.525Z,56.6
2019-04-06T11:04:07.771Z,57.6
2019-04-06T11:05:21.811Z,58.1
2019-04-06T11:06:35.889Z,52.9
2019-04-06T11:07:49.709Z,58.1
2019-04-06T11:09:03.813Z,56
2019-04-06T11:10:17.891Z,54.1
2019-04-06T11:11:31.899Z,53.3
2019-04-06T11:12:45.937Z,53.3
2019-04-06T11:14:01.424Z,53.2
2019-04-06T11:15:14.050Z,53.3
2019-04-06T11:16:28.192Z,55
2019-04-06T11:17:42.184Z,52.9
2019-04-06T11:18:56.319Z,54.1
2019-04-06T11:20:10.351Z,53.1
2019-04-06T11:21:24.422Z,51.9
2019-04-06T11:22:38.456Z,53.6
2019-04-06T11:23:52.553Z,53.9
2019-04-06T11:25:06.584Z,53.2
2019-04-06T11:26:20.576Z,53.3
2019-04-06T11:28:48.839Z,53.2
2019-04-06T11:30:02.977Z,53
2019-04-06T11:31:16.948Z,54.2
2019-04-06T11:32:30.980Z,53.5
2019-04-06T11:33:45.114Z,55.8
2019-04-06T11:34:59.298Z,53.3
2019-04-06T11:36:13.336Z,52.3
2019-04-06T11:37:27.345Z,52.8
2019-04-06T11:38:41.435Z,52.4
2019-04-06T11:39:55.650Z,54.8
2019-04-06T11:41:09.741Z,54.7
2019-04-06T11:42:23.840Z,56.9
2019-04-06T11:43:38.252Z,55.9
2019-04-06T11:44:52.050Z,54.6
2019-04-06T11:46:06.072Z,56
2019-04-06T11:47:20.280Z,54.3
2019-04-06T11:48:34.295Z,54.3
2019-04-06T11:49:48.399Z,54.2
2019-04-06T11:51:02.630Z,56.6
2019-04-06T11:52:16.615Z,52
2019-04-06T11:53:30.867Z,51.4
2019-04-06T11:54:44.951Z,55.9
2019-04-06T11:55:59.046Z,53.5
2019-04-06T11:57:13.147Z,54.6
2019-04-06T11:58:27.101Z,56.7
2019-04-06T11:59:41.221Z,54.7
2019-04-06T12:00:55.370Z,50.7
2019-04-06T12:02:09.313Z,52.7
2019-04-06T12:03:23.382Z,51.7
2019-04-06T12:04:37.438Z,54.5
2019-04-06T12:05:51.560Z,53.4
2019-04-06T12:07:10.481Z,50.1
2019-04-06T12:08:19.658Z,52.4
2019-04-06T12:09:33.896Z,52.7
2019-04-06T12:10:49.293Z,51.6
2019-04-06T12:12:04.026Z,53
2019-04-06T12:13:15.938Z,53
2019-04-06T12:14:30.042Z,52.6
2019-04-06T12:15:44.168Z,52
2019-04-06T12:16:58.183Z,52.5
2019-04-06T12:18:12.213Z,49.4
2019-04-06T12:19:26.418Z,49.8
2019-04-06T12:20:40.454Z,50.1
2019-04-06T12:21:54.436Z,54
2019-04-06T12:23:08.712Z,50.7
2019-04-06T12:24:22.594Z,50.1
2019-04-06T12:25:36.904Z,52.7
2019-04-06T12:26:50.889Z,52.4
2019-04-06T12:28:04.945Z,52.5
2019-04-06T12:29:18.879Z,50.4
2019-04-06T12:30:33.049Z,51.3
2019-04-06T12:31:46.980Z,49.9
2019-04-06T12:33:01.199Z,48.8
2019-04-06T12:34:15.092Z,52.6
2019-04-06T12:35:29.163Z,50
2019-04-06T12:36:43.592Z,49.7
2019-04-06T12:37:57.293Z,49.6
2019-04-06T12:39:11.385Z,49.4
2019-04-06T12:40:25.448Z,48.4
2019-04-06T12:41:39.625Z,48.7
2019-04-06T12:42:53.680Z,50.7
2019-04-06T12:44:07.689Z,50.4
2019-04-06T12:45:21.837Z,50.9
2019-04-06T12:46:35.833Z,49.3
2019-04-06T12:47:49.892Z,51.6
2019-04-06T12:49:03.972Z,50.7
2019-04-06T12:50:18.097Z,52
2019-04-06T12:51:32.117Z,49.3
2019-04-06T12:52:46.282Z,47.8
2019-04-06T12:55:14.316Z,50.4
2019-04-06T12:56:28.503Z,51.6
2019-04-06T12:57:42.459Z,48.2
2019-04-06T12:58:56.716Z,49
2019-04-06T13:00:10.758Z,49.1
2019-04-06T13:01:24.707Z,50
2019-04-06T13:02:38.800Z,48.6
2019-04-06T13:03:52.884Z,47.7
2019-04-06T13:05:07.036Z,48.5
2019-04-06T13:06:21.007Z,49.4
2019-04-06T13:07:35.110Z,50
2019-04-06T13:08:49.178Z,46.8
2019-04-06T13:10:03.277Z,48.3
2019-04-06T13:11:17.330Z,49.6
2019-04-06T13:12:31.393Z,50.5
2019-04-06T13:13:45.551Z,47.8
2019-04-06T13:14:59.527Z,53.6
2019-04-06T13:16:13.636Z,47.2
2019-04-06T13:17:27.712Z,47.5
2019-04-06T13:18:41.789Z,48.3
2019-04-06T13:19:55.890Z,45.7
2019-04-06T13:21:09.995Z,47.2
2019-04-06T13:22:24.090Z,52
2019-04-06T13:23:38.176Z,49.5
2019-04-06T13:24:53.427Z,46.6
2019-04-06T13:26:06.485Z,48.2
2019-04-06T13:27:20.508Z,48
2019-04-06T13:28:34.604Z,49.8
2019-04-06T13:29:48.753Z,50.1
2019-04-06T13:31:02.849Z,49.4
2019-04-06T13:32:16.890Z,49.9
2019-04-06T13:33:30.994Z,48.4
2019-04-06T13:34:45.124Z,49.1
2019-04-06T13:35:59.170Z,46.3
2019-04-06T13:37:13.275Z,48.4
2019-04-06T13:38:27.375Z,45.4
2019-04-06T13:39:41.476Z,46
2019-04-06T13:40:55.536Z,45
2019-04-06T13:42:09.637Z,45.6
2019-04-06T13:43:23.730Z,46.3
2019-04-06T13:44:37.821Z,48.1
2019-04-06T13:45:53.769Z,43.3
2019-04-06T13:47:05.997Z,44.6
2019-04-06T13:48:20.088Z,45.4
2019-04-06T13:49:34.175Z,42.8
2019-04-06T13:50:48.337Z,44
2019-04-06T13:52:02.321Z,46.1
2019-04-06T13:53:16.397Z,44.3
2019-04-06T13:54:30.572Z,43.9
2019-04-06T13:55:48.952Z,44
2019-04-06T13:56:58.667Z,44.3
2019-04-06T13:58:12.814Z,47.3
2019-04-06T14:00:40.960Z,44.5
2019-04-06T14:01:55.037Z,44.1
2019-04-06T14:03:09.121Z,46.2
2019-04-06T14:04:23.196Z,45.9
2019-04-06T14:05:37.264Z,42.6
2019-04-06T14:06:53.030Z,44.4
2019-04-06T14:08:05.497Z,44.3
2019-04-06T14:09:19.623Z,43.1
2019-04-06T14:10:33.734Z,41.2
2019-04-06T14:11:47.747Z,44.1
2019-04-06T14:13:01.868Z,41.7
2019-04-06T14:14:15.984Z,45.9
2019-04-06T14:15:30.117Z,42
2019-04-06T14:16:44.253Z,40.4
2019-04-06T14:17:58.330Z,42.1
2019-04-06T14:19:12.553Z,42.6
2019-04-06T14:20:26.566Z,44.9
2019-04-06T14:21:40.886Z,41.4
2019-04-06T14:22:54.829Z,43.5
2019-04-06T14:24:08.913Z,41
2019-04-06T14:25:23.238Z,41.9
2019-04-06T14:26:37.146Z,44
2019-04-06T14:27:51.382Z,38.5
2019-04-06T14:29:05.433Z,40.7
2019-04-06T14:30:19.489Z,41.3
2019-04-06T14:31:33.683Z,40.8
2019-04-06T14:32:47.683Z,41.5
2019-04-06T14:34:01.775Z,41.9
2019-04-06T14:35:15.873Z,38.4
2019-04-06T14:36:29.996Z,40
2019-04-06T14:37:44.309Z,39.4
2019-04-06T14:38:58.177Z,39.7
2019-04-06T14:40:12.259Z,37
2019-04-06T14:41:26.400Z,35.6
2019-04-06T14:42:40.440Z,35.1
2019-04-06T14:43:54.636Z,36.1
2019-04-06T14:45:08.590Z,36.9
2019-04-06T14:46:22.760Z,36.1
2019-04-06T14:47:36.804Z,40.4
2019-04-06T14:48:50.974Z,37
2019-04-06T14:50:05.055Z,33.9
2019-04-06T14:51:19.129Z,33.2
2019-04-06T14:52:33.167Z,33.2
2019-04-06T14:53:47.278Z,32.5
2019-04-06T14:55:01.367Z,32.6
2019-04-06T14:56:15.455Z,31.2
2019-04-06T14:57:29.565Z,33.7
2019-04-06T14:58:44.065Z,33.8
2019-04-06T14:59:57.741Z,31.4
2019-04-06T15:01:11.946Z,30.9
2019-04-06T15:02:25.938Z,31.3
2019-04-06T15:03:40.045Z,32.2
2019-04-06T15:04:54.133Z,32.6
2019-04-06T15:06:08.261Z,33.5
2019-04-06T15:07:22.351Z,34.5
2019-04-06T15:08:36.588Z,31.8
2019-04-06T15:09:50.568Z,32.6
2019-04-06T15:11:04.753Z,30.1
2019-04-06T15:12:18.870Z,31.3
2019-04-06T15:13:34.537Z,31.8
2019-04-06T15:14:46.962Z,30.5
2019-04-06T15:16:01.168Z,31.4
2019-04-06T15:17:15.166Z,31.5
2019-04-06T15:18:29.284Z,29.4
2019-04-06T15:19:43.577Z,30
2019-04-06T15:20:57.544Z,28.3
2019-04-06T15:22:11.581Z,27.6
2019-04-06T15:23:25.745Z,28.5
2019-04-06T15:24:39.809Z,28.6
2019-04-06T15:25:53.936Z,26.7
2019-04-06T15:27:11.179Z,28.6
2019-04-06T15:28:22.187Z,29.5
2019-04-06T15:29:36.330Z,26.5
2019-04-06T15:30:50.368Z,25.7
2019-04-06T15:32:04.491Z,29.1
2019-04-06T15:33:19.102Z,27.2
2019-04-06T15:35:46.695Z,25.5
2019-04-06T15:37:01.287Z,25.6
2019-04-06T15:38:15.022Z,26.3
2019-04-06T15:39:31.598Z,25.7
2019-04-06T15:40:43.743Z,27.4
2019-04-06T15:41:57.196Z,24.8
2019-04-06T15:43:11.277Z,26.6
2019-04-06T15:44:25.380Z,26.3
2019-04-06T15:45:40.401Z,25.1
2019-04-06T15:46:53.584Z,24.8
2019-04-06T15:48:07.677Z,24.9
2019-04-06T15:49:22.402Z,27.1
2019-04-06T15:50:35.879Z,29.1
2019-04-06T15:51:50.503Z,31
2019-04-06T15:53:04.331Z,30.8
2019-04-06T15:54:18.278Z,33.5
2019-04-06T15:55:32.266Z,33.4
2019-04-06T15:56:46.370Z,33.9
2019-04-06T15:58:00.585Z,32.5
2019-04-06T15:59:14.574Z,33.2
2019-04-06T16:00:32.485Z,34.2
2019-04-06T16:01:45.762Z,35.1
2019-04-06T16:02:58.959Z,33.6
2019-04-06T16:04:10.968Z,34.1
2019-04-06T16:05:25.347Z,34.8
2019-04-06T16:06:39.194Z,33.9
2019-04-06T16:07:53.485Z,36.4
2019-04-06T16:09:07.330Z,35.9
2019-04-06T16:10:21.521Z,35.2
2019-04-06T16:11:35.533Z,35.5
2019-04-06T16:12:49.623Z,35.2
2019-04-06T16:14:03.743Z,36.9
2019-04-06T16:15:17.847Z,35.2
2019-04-06T16:16:31.957Z,35.7
2019-04-06T16:17:46.087Z,33.9
2019-04-06T16:19:00.276Z,36.7
2019-04-06T16:20:18.427Z,34.8
2019-04-06T16:21:28.523Z,34.1
2019-04-06T16:22:42.546Z,35.5
2019-04-06T16:23:56.643Z,37.2
2019-04-06T16:25:10.705Z,33.9
2019-04-06T16:26:24.903Z,35.8
2019-04-06T16:27:38.927Z,34.6
2019-04-06T16:28:53.016Z,34.1
2019-04-06T16:30:07.132Z,32.7
2019-04-06T16:31:21.577Z,34.5
2019-04-06T16:32:35.375Z,30.8
2019-04-06T16:33:49.410Z,35
2019-04-06T16:35:03.521Z,36